BKPR/PRN METAR and TAF weather

Enter ICAO airport designator
Station Type Date Time Source
BKPR METAR 2019/10/21 05:00 UTC NOAA

BKPR 210500Z VRB02KT 3000 BR FEW006 06/03 Q1024 TEMPO 1500


Station Type Date Time Source
BKPR Decoded METAR 2019/10/21 05:00 UTC NOAA

Station name not available
Oct 21, 2019 - 01:00 AM EDT / 2019.10.21 0500 UTC
Wind: Variable at 2 MPH (2 KT):0
Visibility: 1 mile(s):0
Sky conditions: mostly clear
Weather: mist
Temperature: 42 F (6 C)
Dew Point: 37 F (3 C)
Relative Humidity: 81%
Pressure (altimeter): 30.24 in. Hg (1024 hPa)
ob: BKPR 210500Z VRB02KT 3000 BR FEW006 06/03 Q1024 TEMPO 1500
cycle: 5

Station Type Date Time Source
BKPR TAF 2019/10/20 18:30 UTC NOAA

TAF BKPR 201730Z 2018/2118 VRB03KT CAVOK
TEMPO 2104/2107 3000 BR

Example: see airport list